sensor_id;sensor_type;location;lat;lon;timestamp;pressure;altitude;pressure_sealevel;temperature;humidity
30636;BME280;17400;52.392;9.750;2023-04-02T00:01:46;100613.16;;;5.48;100.00
30636;BME280;17400;52.392;9.750;2023-04-02T00:04:17;100604.06;;;5.41;100.00
30636;BME280;17400;52.392;9.750;2023-04-02T00:06:50;100613.63;;;5.43;100.00
30636;BME280;17400;52.392;9.750;2023-04-02T00:09:27;100617.84;;;5.46;100.00
30636;BME280;17400;52.392;9.750;2023-04-02T00:11:57;100623.03;;;5.39;100.00
30636;BME280;17400;52.392;9.750;2023-04-02T00:14:29;100626.72;;;5.30;100.00
30636;BME280;17400;52.392;9.750;2023-04-02T00:17:00;100642.44;;;5.08;100.00
30636;BME280;17400;52.392;9.750;2023-04-02T00:19:32;100643.97;;;5.19;100.00
30636;BME280;17400;52.392;9.750;2023-04-02T00:22:05;100640.47;;;5.27;100.00
30636;BME280;17400;52.392;9.750;2023-04-02T00:24:33;100651.50;;;5.15;100.00
30636;BME280;17400;52.392;9.750;2023-04-02T00:27:02;100644.22;;;4.99;100.00
30636;BME280;17400;52.392;9.750;2023-04-02T00:29:30;100654.97;;;4.99;100.00
30636;BME280;17400;52.392;9.750;2023-04-02T00:31:58;100658.72;;;5.15;100.00
30636;BME280;17400;52.392;9.750;2023-04-02T00:34:31;100667.81;;;5.30;100.00
30636;BME280;17400;52.392;9.750;2023-04-02T00:37:00;100660.94;;;5.28;100.00
30636;BME280;17400;52.392;9.750;2023-04-02T00:39:30;100675.31;;;5.18;100.00
30636;BME280;17400;52.392;9.750;2023-04-02T00:41:59;100672.34;;;5.30;100.00
30636;BME280;17400;52.392;9.750;2023-04-02T00:44:35;100686.38;;;5.15;100.00
30636;BME280;17400;52.392;9.750;2023-04-02T00:47:09;100687.38;;;5.14;100.00
30636;BME280;17400;52.392;9.750;2023-04-02T00:49:42;100692.44;;;5.17;100.00
30636;BME280;17400;52.392;9.750;2023-04-02T00:52:12;100695.50;;;5.31;100.00
30636;BME280;17400;52.392;9.750;2023-04-02T00:54:44;100697.03;;;5.42;100.00
30636;BME280;17400;52.392;9.750;2023-04-02T00:57:18;100701.88;;;5.38;100.00
30636;BME280;17400;52.392;9.750;2023-04-02T00:59:57;100703.91;;;5.36;100.00
30636;BME280;17400;52.392;9.750;2023-04-02T01:02:29;100707.59;;;5.35;100.00
30636;BME280;17400;52.392;9.750;2023-04-02T01:04:59;100719.63;;;5.23;100.00
30636;BME280;17400;52.392;9.750;2023-04-02T01:07:52;100720.59;;;5.13;100.00
30636;BME280;17400;52.392;9.750;2023-04-02T01:10:48;100717.06;;;5.13;100.00
30636;BME280;17400;52.392;9.750;2023-04-02T01:13:27;100726.44;;;5.09;100.00
30636;BME280;17400;52.392;9.750;2023-04-02T01:16:03;100725.97;;;5.13;100.00
30636;BME280;17400;52.392;9.750;2023-04-02T01:18:43;100722.06;;;5.08;100.00
30636;BME280;17400;52.392;9.750;2023-04-02T01:21:22;100734.81;;;5.06;100.00
30636;BME280;17400;52.392;9.750;2023-04-02T01:24:00;100736.19;;;5.10;100.00
30636;BME280;17400;52.392;9.750;2023-04-02T01:26:44;100741.75;;;5.16;100.00
30636;BME280;17400;52.392;9.750;2023-04-02T01:29:17;100740.75;;;5.17;100.00
30636;BME280;17400;52.392;9.750;2023-04-02T01:31:48;100749.78;;;5.16;100.00
30636;BME280;17400;52.392;9.750;2023-04-02T01:34:19;100743.09;;;5.21;100.00
30636;BME280;17400;52.392;9.750;2023-04-02T01:37:01;100749.94;;;5.07;100.00
30636;BME280;17400;52.392;9.750;2023-04-02T01:39:38;100756.38;;;4.96;100.00
30636;BME280;17400;52.392;9.750;2023-04-02T01:42:14;100765.56;;;4.85;100.00
30636;BME280;17400;52.392;9.750;2023-04-02T01:44:47;100765.84;;;4.74;100.00
30636;BME280;17400;52.392;9.750;2023-04-02T01:47:22;100778.16;;;4.66;100.00
30636;BME280;17400;52.392;9.750;2023-04-02T01:49:53;100783.53;;;4.66;100.00
30636;BME280;17400;52.392;9.750;2023-04-02T01:52:33;100790.38;;;4.61;100.00
30636;BME280;17400;52.392;9.750;2023-04-02T01:55:02;100796.78;;;4.68;100.00
30636;BME280;17400;52.392;9.750;2023-04-02T01:57:31;100793.72;;;4.63;100.00
30636;BME280;17400;52.392;9.750;2023-04-02T02:00:00;100803.69;;;4.71;100.00
30636;BME280;17400;52.392;9.750;2023-04-02T02:02:34;100811.78;;;4.79;100.00
30636;BME280;17400;52.392;9.750;2023-04-02T02:05:03;100816.63;;;4.75;100.00
30636;BME280;17400;52.392;9.750;2023-04-02T02:07:31;100819.31;;;4.75;100.00
30636;BME280;17400;52.392;9.750;2023-04-02T02:09:59;100817.94;;;4.71;100.00
30636;BME280;17400;52.392;9.750;2023-04-02T02:12:27;100817.34;;;4.59;100.00
30636;BME280;17400;52.392;9.750;2023-04-02T02:14:54;100832.50;;;4.50;100.00
30636;BME280;17400;52.392;9.750;2023-04-02T02:17:28;100840.72;;;4.49;100.00
30636;BME280;17400;52.392;9.750;2023-04-02T02:20:00;100844.16;;;4.59;100.00
30636;BME280;17400;52.392;9.750;2023-04-02T02:22:31;100846.53;;;4.62;100.00
30636;BME280;17400;52.392;9.750;2023-04-02T02:25:02;100850.25;;;4.70;100.00
30636;BME280;17400;52.392;9.750;2023-04-02T02:27:42;100857.25;;;4.44;100.00
30636;BME280;17400;52.392;9.750;2023-04-02T02:30:14;100858.34;;;4.52;100.00
30636;BME280;17400;52.392;9.750;2023-04-02T02:32:53;100869.81;;;4.62;100.00
30636;BME280;17400;52.392;9.750;2023-04-02T02:35:27;100874.16;;;4.63;100.00
30636;BME280;17400;52.392;9.750;2023-04-02T02:38:09;100875.34;;;4.42;100.00
30636;BME280;17400;52.392;9.750;2023-04-02T02:40:42;100881.09;;;4.47;100.00
30636;BME280;17400;52.392;9.750;2023-04-02T02:43:13;100882.47;;;4.52;100.00
30636;BME280;17400;52.392;9.750;2023-04-02T02:45:44;100892.19;;;4.53;100.00
30636;BME280;17400;52.392;9.750;2023-04-02T02:48:16;100896.03;;;4.50;100.00
30636;BME280;17400;52.392;9.750;2023-04-02T02:50:46;100896.25;;;4.39;100.00
30636;BME280;17400;52.392;9.750;2023-04-02T02:53:18;100903.84;;;4.43;100.00
30636;BME280;17400;52.392;9.750;2023-04-02T02:55:47;100917.75;;;4.47;100.00
30636;BME280;17400;52.392;9.750;2023-04-02T02:58:18;100912.63;;;4.54;100.00
30636;BME280;17400;52.392;9.750;2023-04-02T03:00:49;100918.38;;;4.59;100.00
30636;BME280;17400;52.392;9.750;2023-04-02T03:03:20;100924.75;;;4.58;100.00
30636;BME280;17400;52.392;9.750;2023-04-02T03:05:50;100929.72;;;4.53;100.00
30636;BME280;17400;52.392;9.750;2023-04-02T03:08:24;100928.81;;;4.62;100.00
30636;BME280;17400;52.392;9.750;2023-04-02T03:10:59;100934.75;;;4.38;100.00
30636;BME280;17400;52.392;9.750;2023-04-02T03:13:30;100947.31;;;4.37;100.00
30636;BME280;17400;52.392;9.750;2023-04-02T03:16:06;100949.88;;;4.57;100.00
30636;BME280;17400;52.392;9.750;2023-04-02T03:18:42;100952.47;;;4.66;100.00
30636;BME280;17400;52.392;9.750;2023-04-02T03:21:21;100958.06;;;4.73;100.00
30636;BME280;17400;52.392;9.750;2023-04-02T03:23:53;100962.84;;;4.79;100.00
30636;BME280;17400;52.392;9.750;2023-04-02T03:26:29;100963.75;;;4.70;100.00
30636;BME280;17400;52.392;9.750;2023-04-02T03:29:04;100962.34;;;4.48;100.00
30636;BME280;17400;52.392;9.750;2023-04-02T03:31:35;100971.13;;;4.40;100.00
30636;BME280;17400;52.392;9.750;2023-04-02T03:34:08;100972.75;;;4.51;100.00
30636;BME280;17400;52.392;9.750;2023-04-02T03:36:41;100976.84;;;4.55;100.00
30636;BME280;17400;52.392;9.750;2023-04-02T03:39:16;100995.75;;;4.54;100.00
30636;BME280;17400;52.392;9.750;2023-04-02T03:41:51;100993.91;;;4.54;100.00
30636;BME280;17400;52.392;9.750;2023-04-02T03:44:25;100998.25;;;4.37;100.00
30636;BME280;17400;52.392;9.750;2023-04-02T03:46:57;100999.03;;;4.47;100.00
30636;BME280;17400;52.392;9.750;2023-04-02T03:49:35;101004.69;;;4.44;100.00
30636;BME280;17400;52.392;9.750;2023-04-02T03:52:09;101003.84;;;4.44;100.00
30636;BME280;17400;52.392;9.750;2023-04-02T03:54:40;101014.28;;;4.47;100.00
30636;BME280;17400;52.392;9.750;2023-04-02T03:57:25;101021.66;;;4.63;100.00
30636;BME280;17400;52.392;9.750;2023-04-02T04:00:00;101023.31;;;4.74;100.00
30636;BME280;17400;52.392;9.750;2023-04-02T04:02:38;101031.09;;;4.67;98.49
30636;BME280;17400;52.392;9.750;2023-04-02T04:05:22;101040.41;;;4.63;99.54
30636;BME280;17400;52.392;9.750;2023-04-02T04:07:52;101039.44;;;4.64;99.73
30636;BME280;17400;52.392;9.750;2023-04-02T04:10:24;101046.25;;;4.58;97.61
30636;BME280;17400;52.392;9.750;2023-04-02T04:12:54;101047.03;;;4.03;99.29
30636;BME280;17400;52.392;9.750;2023-04-02T04:15:26;101060.28;;;4.14;100.00
30636;BME280;17400;52.392;9.750;2023-04-02T04:18:00;101056.50;;;4.35;100.00
30636;BME280;17400;52.392;9.750;2023-04-02T04:20:35;101060.25;;;4.52;99.37
30636;BME280;17400;52.392;9.750;2023-04-02T04:23:09;101076.72;;;4.57;97.91
30636;BME280;17400;52.392;9.750;2023-04-02T04:25:38;101077.69;;;4.66;98.57
30636;BME280;17400;52.392;9.750;2023-04-02T04:28:12;101067.63;;;4.68;97.96
30636;BME280;17400;52.392;9.750;2023-04-02T04:30:48;101076.63;;;4.77;98.80
30636;BME280;17400;52.392;9.750;2023-04-02T04:33:20;101073.94;;;4.77;96.92
30636;BME280;17400;52.392;9.750;2023-04-02T04:35:54;101086.13;;;4.71;97.94
30636;BME280;17400;52.392;9.750;2023-04-02T04:38:30;101090.94;;;4.67;97.51
30636;BME280;17400;52.392;9.750;2023-04-02T04:41:03;101094.03;;;4.73;97.29
30636;BME280;17400;52.392;9.750;2023-04-02T04:43:42;101093.56;;;4.77;97.69
30636;BME280;17400;52.392;9.750;2023-04-02T04:46:15;101106.44;;;4.74;96.39
30636;BME280;17400;52.392;9.750;2023-04-02T04:48:49;101114.19;;;4.77;95.89
30636;BME280;17400;52.392;9.750;2023-04-02T04:51:22;101114.94;;;4.69;93.35
30636;BME280;17400;52.392;9.750;2023-04-02T04:53:52;101126.84;;;4.57;92.42
30636;BME280;17400;52.392;9.750;2023-04-02T04:56:24;101120.41;;;4.40;91.59
30636;BME280;17400;52.392;9.750;2023-04-02T04:58:59;101133.78;;;4.49;94.28
30636;BME280;17400;52.392;9.750;2023-04-02T05:01:33;101146.25;;;4.41;93.51
30636;BME280;17400;52.392;9.750;2023-04-02T05:04:10;101140.44;;;4.45;94.19
30636;BME280;17400;52.392;9.750;2023-04-02T05:06:42;101146.44;;;4.57;94.09
30636;BME280;17400;52.392;9.750;2023-04-02T05:09:17;101146.03;;;4.52;90.30
30636;BME280;17400;52.392;9.750;2023-04-02T05:11:51;101159.72;;;4.02;92.65
30636;BME280;17400;52.392;9.750;2023-04-02T05:14:23;101167.28;;;4.26;93.58
30636;BME280;17400;52.392;9.750;2023-04-02T05:16:57;101172.06;;;4.32;91.03
30636;BME280;17400;52.392;9.750;2023-04-02T05:19:31;101171.78;;;4.35;91.96
30636;BME280;17400;52.392;9.750;2023-04-02T05:22:13;101182.19;;;4.48;91.62
30636;BME280;17400;52.392;9.750;2023-04-02T05:24:52;101186.88;;;4.46;90.47
30636;BME280;17400;52.392;9.750;2023-04-02T05:27:27;101199.50;;;4.54;89.02
30636;BME280;17400;52.392;9.750;2023-04-02T05:30:04;101202.88;;;4.65;91.92
30636;BME280;17400;52.392;9.750;2023-04-02T05:32:35;101210.09;;;4.65;89.31
30636;BME280;17400;52.392;9.750;2023-04-02T05:35:14;101208.69;;;4.61;88.67
30636;BME280;17400;52.392;9.750;2023-04-02T05:37:44;101214.00;;;4.71;87.31
30636;BME280;17400;52.392;9.750;2023-04-02T05:40:16;101216.53;;;4.82;88.07
30636;BME280;17400;52.392;9.750;2023-04-02T05:42:48;101218.88;;;4.95;88.48
30636;BME280;17400;52.392;9.750;2023-04-02T05:45:28;101225.84;;;4.78;84.84
30636;BME280;17400;52.392;9.750;2023-04-02T05:48:00;101225.19;;;4.56;87.13
30636;BME280;17400;52.392;9.750;2023-04-02T05:50:32;101227.34;;;4.53;89.64
30636;BME280;17400;52.392;9.750;2023-04-02T05:53:08;101237.63;;;4.57;90.77
30636;BME280;17400;52.392;9.750;2023-04-02T05:55:42;101245.09;;;4.63;89.25
30636;BME280;17400;52.392;9.750;2023-04-02T05:58:16;101240.06;;;4.31;88.94
30636;BME280;17400;52.392;9.750;2023-04-02T06:01:06;101256.16;;;4.31;90.67
30636;BME280;17400;52.392;9.750;2023-04-02T06:03:42;101260.53;;;4.32;90.50
30636;BME280;17400;52.392;9.750;2023-04-02T06:06:17;101261.34;;;4.52;91.53
30636;BME280;17400;52.392;9.750;2023-04-02T06:08:54;101261.91;;;4.56;89.04
30636;BME280;17400;52.392;9.750;2023-04-02T06:11:26;101268.53;;;4.42;88.24
30636;BME280;17400;52.392;9.750;2023-04-02T06:13:57;101271.91;;;4.54;89.96
30636;BME280;17400;52.392;9.750;2023-04-02T06:16:27;101273.88;;;4.61;89.43
30636;BME280;17400;52.392;9.750;2023-04-02T06:18:56;101279.50;;;4.68;89.92
30636;BME280;17400;52.392;9.750;2023-04-02T06:21:24;101287.56;;;4.68;88.08
30636;BME280;17400;52.392;9.750;2023-04-02T06:23:55;101290.53;;;4.65;87.78
30636;BME280;17400;52.392;9.750;2023-04-02T06:26:28;101305.53;;;4.58;88.03
30636;BME280;17400;52.392;9.750;2023-04-02T06:29:02;101312.81;;;4.65;89.33
30636;BME280;17400;52.392;9.750;2023-04-02T06:31:36;101319.06;;;4.46;87.21
30636;BME280;17400;52.392;9.750;2023-04-02T06:34:09;101325.53;;;4.54;87.16
30636;BME280;17400;52.392;9.750;2023-04-02T06:36:39;101321.00;;;4.64;88.51
30636;BME280;17400;52.392;9.750;2023-04-02T06:39:13;101329.50;;;4.30;86.74
30636;BME280;17400;52.392;9.750;2023-04-02T06:41:43;101328.94;;;4.36;90.78
30636;BME280;17400;52.392;9.750;2023-04-02T06:44:15;101334.84;;;4.49;89.79
30636;BME280;17400;52.392;9.750;2023-04-02T06:46:46;101335.16;;;4.66;88.81
30636;BME280;17400;52.392;9.750;2023-04-02T06:49:22;101346.69;;;4.66;88.94
30636;BME280;17400;52.392;9.750;2023-04-02T06:51:53;101343.44;;;4.63;88.85
30636;BME280;17400;52.392;9.750;2023-04-02T06:54:22;101352.91;;;4.77;90.17
30636;BME280;17400;52.392;9.750;2023-04-02T06:56:51;101356.72;;;4.74;88.30
30636;BME280;17400;52.392;9.750;2023-04-02T06:59:20;101361.38;;;4.72;88.69
30636;BME280;17400;52.392;9.750;2023-04-02T07:01:51;101363.63;;;4.77;89.41
30636;BME280;17400;52.392;9.750;2023-04-02T07:04:20;101367.44;;;4.74;90.95
30636;BME280;17400;52.392;9.750;2023-04-02T07:06:48;101366.06;;;4.50;89.10
30636;BME280;17400;52.392;9.750;2023-04-02T07:09:16;101371.69;;;4.57;91.88
30636;BME280;17400;52.392;9.750;2023-04-02T07:11:45;101381.16;;;4.61;91.92
30636;BME280;17400;52.392;9.750;2023-04-02T07:14:13;101374.94;;;4.71;91.21
30636;BME280;17400;52.392;9.750;2023-04-02T07:16:42;101382.69;;;4.83;91.65
30636;BME280;17400;52.392;9.750;2023-04-02T07:19:16;101399.91;;;4.91;90.61
30636;BME280;17400;52.392;9.750;2023-04-02T07:21:46;101397.63;;;4.96;90.26
30636;BME280;17400;52.392;9.750;2023-04-02T07:24:14;101412.75;;;4.97;89.90
30636;BME280;17400;52.392;9.750;2023-04-02T07:26:42;101409.22;;;4.87;89.40
30636;BME280;17400;52.392;9.750;2023-04-02T07:29:15;101414.31;;;4.90;90.01
30636;BME280;17400;52.392;9.750;2023-04-02T07:31:43;101417.44;;;4.95;88.94
30636;BME280;17400;52.392;9.750;2023-04-02T07:34:11;101418.13;;;4.97;88.66
30636;BME280;17400;52.392;9.750;2023-04-02T07:36:39;101431.81;;;5.04;89.99
30636;BME280;17400;52.392;9.750;2023-04-02T07:39:07;101424.88;;;5.11;89.14
30636;BME280;17400;52.392;9.750;2023-04-02T07:41:50;101425.16;;;5.17;89.63
30636;BME280;17400;52.392;9.750;2023-04-02T07:44:19;101437.91;;;5.06;90.18
30636;BME280;17400;52.392;9.750;2023-04-02T07:46:47;101447.19;;;5.11;88.95
30636;BME280;17400;52.392;9.750;2023-04-02T07:49:15;101442.13;;;5.08;88.50
30636;BME280;17400;52.392;9.750;2023-04-02T07:51:43;101456.09;;;4.82;89.56
30636;BME280;17400;52.392;9.750;2023-04-02T07:54:11;101460.78;;;4.90;90.43
30636;BME280;17400;52.392;9.750;2023-04-02T07:56:38;101464.72;;;4.96;89.63
30636;BME280;17400;52.392;9.750;2023-04-02T07:59:09;101473.19;;;4.81;90.46
30636;BME280;17400;52.392;9.750;2023-04-02T08:01:39;101465.88;;;4.74;90.16
30636;BME280;17400;52.392;9.750;2023-04-02T08:04:16;101472.06;;;4.94;90.49
30636;BME280;17400;52.392;9.750;2023-04-02T08:06:46;101475.34;;;4.97;90.80
30636;BME280;17400;52.392;9.750;2023-04-02T08:09:15;101484.50;;;4.75;89.89
30636;BME280;17400;52.392;9.750;2023-04-02T08:11:43;101495.25;;;4.95;90.62
30636;BME280;17400;52.392;9.750;2023-04-02T08:14:12;101500.59;;;5.05;90.52
30636;BME280;17400;52.392;9.750;2023-04-02T08:16:47;101500.03;;;5.11;90.69
30636;BME280;17400;52.392;9.750;2023-04-02T08:19:16;101501.59;;;4.94;88.84
30636;BME280;17400;52.392;9.750;2023-04-02T08:21:44;101503.72;;;4.80;89.22
30636;BME280;17400;52.392;9.750;2023-04-02T08:24:15;101509.50;;;4.86;89.55
30636;BME280;17400;52.392;9.750;2023-04-02T08:26:44;101517.09;;;5.00;89.26
30636;BME280;17400;52.392;9.750;2023-04-02T08:29:13;101520.34;;;4.84;90.90
30636;BME280;17400;52.392;9.750;2023-04-02T08:31:41;101522.19;;;4.93;89.03
30636;BME280;17400;52.392;9.750;2023-04-02T08:34:10;101531.09;;;4.94;89.09
30636;BME280;17400;52.392;9.750;2023-04-02T08:36:40;101537.03;;;5.07;90.32
30636;BME280;17400;52.392;9.750;2023-04-02T08:39:09;101535.91;;;5.20;89.71
30636;BME280;17400;52.392;9.750;2023-04-02T08:41:41;101545.66;;;5.21;89.63
30636;BME280;17400;52.392;9.750;2023-04-02T08:44:21;101539.72;;;5.07;87.59
30636;BME280;17400;52.392;9.750;2023-04-02T08:46:54;101551.72;;;5.13;88.71
30636;BME280;17400;52.392;9.750;2023-04-02T08:49:28;101558.25;;;5.20;88.63
30636;BME280;17400;52.392;9.750;2023-04-02T08:51:58;101558.34;;;5.18;87.66
30636;BME280;17400;52.392;9.750;2023-04-02T08:54:30;101568.81;;;5.02;88.89
30636;BME280;17400;52.392;9.750;2023-04-02T08:57:06;101563.44;;;5.02;86.05
30636;BME280;17400;52.392;9.750;2023-04-02T08:59:36;101582.78;;;4.96;86.92
30636;BME280;17400;52.392;9.750;2023-04-02T09:02:19;101579.16;;;5.16;87.55
30636;BME280;17400;52.392;9.750;2023-04-02T09:04:51;101578.16;;;5.17;84.85
30636;BME280;17400;52.392;9.750;2023-04-02T09:07:19;101567.16;;;5.11;84.15
30636;BME280;17400;52.392;9.750;2023-04-02T09:09:48;101582.81;;;5.15;85.67
30636;BME280;17400;52.392;9.750;2023-04-02T09:12:19;101590.47;;;5.20;84.20
30636;BME280;17400;52.392;9.750;2023-04-02T09:14:58;101591.00;;;5.24;84.07
30636;BME280;17400;52.392;9.750;2023-04-02T09:17:29;101600.50;;;5.28;85.04
30636;BME280;17400;52.392;9.750;2023-04-02T09:20:16;101602.75;;;5.23;83.53
30636;BME280;17400;52.392;9.750;2023-04-02T09:22:48;101603.44;;;5.25;84.87
30636;BME280;17400;52.392;9.750;2023-04-02T09:25:19;101615.25;;;4.93;86.47
30636;BME280;17400;52.392;9.750;2023-04-02T09:27:48;101624.50;;;5.10;87.63
30636;BME280;17400;52.392;9.750;2023-04-02T09:30:25;101627.47;;;5.26;86.95
30636;BME280;17400;52.392;9.750;2023-04-02T09:32:58;101628.31;;;5.37;86.10
30636;BME280;17400;52.392;9.750;2023-04-02T09:35:30;101626.06;;;5.42;84.50
30636;BME280;17400;52.392;9.750;2023-04-02T09:38:14;101634.56;;;5.37;83.35
30636;BME280;17400;52.392;9.750;2023-04-02T09:40:46;101637.91;;;5.20;84.46
30636;BME280;17400;52.392;9.750;2023-04-02T09:43:18;101653.47;;;5.16;85.47
30636;BME280;17400;52.392;9.750;2023-04-02T09:45:55;101644.00;;;5.22;86.18
30636;BME280;17400;52.392;9.750;2023-04-02T09:48:26;101652.06;;;5.31;86.11
30636;BME280;17400;52.392;9.750;2023-04-02T09:51:11;101654.63;;;5.43;85.77
30636;BME280;17400;52.392;9.750;2023-04-02T09:53:41;101651.34;;;5.49;83.80
30636;BME280;17400;52.392;9.750;2023-04-02T09:56:13;101669.88;;;5.23;82.55
30636;BME280;17400;52.392;9.750;2023-04-02T09:58:43;101670.31;;;5.38;81.04
30636;BME280;17400;52.392;9.750;2023-04-02T10:01:26;101675.84;;;5.56;81.23
30636;BME280;17400;52.392;9.750;2023-04-02T10:03:55;101685.31;;;5.60;79.94
30636;BME280;17400;52.392;9.750;2023-04-02T10:06:28;101695.38;;;5.67;80.64
30636;BME280;17400;52.392;9.750;2023-04-02T10:08:56;101679.09;;;5.69;79.98
30636;BME280;17400;52.392;9.750;2023-04-02T10:11:28;101694.50;;;5.87;80.20
30636;BME280;17400;52.392;9.750;2023-04-02T10:14:16;101693.22;;;5.91;77.62
30636;BME280;17400;52.392;9.750;2023-04-02T10:16:49;101692.41;;;6.00;76.49
30636;BME280;17400;52.392;9.750;2023-04-02T10:19:27;101689.13;;;5.96;75.04
30636;BME280;17400;52.392;9.750;2023-04-02T10:21:59;101697.94;;;5.98;73.37
30636;BME280;17400;52.392;9.750;2023-04-02T10:24:29;101703.31;;;5.98;72.81
30636;BME280;17400;52.392;9.750;2023-04-02T10:27:04;101706.09;;;5.97;71.56
30636;BME280;17400;52.392;9.750;2023-04-02T10:29:56;101716.47;;;6.11;72.85
30636;BME280;17400;52.392;9.750;2023-04-02T10:32:32;101706.84;;;6.09;72.00
30636;BME280;17400;52.392;9.750;2023-04-02T10:35:10;101716.88;;;6.16;72.53
30636;BME280;17400;52.392;9.750;2023-04-02T10:37:51;101716.59;;;6.20;70.75
30636;BME280;17400;52.392;9.750;2023-04-02T10:40:27;101714.00;;;6.28;71.17
30636;BME280;17400;52.392;9.750;2023-04-02T10:43:21;101714.19;;;6.16;70.10
30636;BME280;17400;52.392;9.750;2023-04-02T10:45:56;101717.44;;;6.00;71.42
30636;BME280;17400;52.392;9.750;2023-04-02T10:48:31;101715.16;;;5.96;72.29
30636;BME280;17400;52.392;9.750;2023-04-02T10:51:05;101722.09;;;6.08;75.42
30636;BME280;17400;52.392;9.750;2023-04-02T10:53:40;101724.63;;;6.10;74.33
30636;BME280;17400;52.392;9.750;2023-04-02T10:56:13;101722.66;;;6.31;75.65
30636;BME280;17400;52.392;9.750;2023-04-02T10:58:46;101730.53;;;6.53;74.37
30636;BME280;17400;52.392;9.750;2023-04-02T11:01:25;101733.97;;;6.35;70.31
30636;BME280;17400;52.392;9.750;2023-04-02T11:03:58;101734.09;;;6.33;68.69
30636;BME280;17400;52.392;9.750;2023-04-02T11:06:31;101736.38;;;6.38;69.02
30636;BME280;17400;52.392;9.750;2023-04-02T11:09:03;101740.16;;;6.45;68.69
30636;BME280;17400;52.392;9.750;2023-04-02T11:11:35;101736.47;;;6.46;67.36
30636;BME280;17400;52.392;9.750;2023-04-02T11:14:11;101745.81;;;6.52;66.50
30636;BME280;17400;52.392;9.750;2023-04-02T11:16:40;101743.88;;;6.34;65.14
30636;BME280;17400;52.392;9.750;2023-04-02T11:19:23;101745.44;;;6.27;66.24
30636;BME280;17400;52.392;9.750;2023-04-02T11:21:54;101755.50;;;6.25;67.02
30636;BME280;17400;52.392;9.750;2023-04-02T11:24:35;101747.69;;;6.32;66.74
30636;BME280;17400;52.392;9.750;2023-04-02T11:27:14;101745.53;;;6.45;65.76
30636;BME280;17400;52.392;9.750;2023-04-02T11:29:46;101748.03;;;6.66;64.35
30636;BME280;17400;52.392;9.750;2023-04-02T11:32:30;101753.81;;;6.81;63.31
30636;BME280;17400;52.392;9.750;2023-04-02T11:35:35;101755.63;;;6.91;62.79
30636;BME280;17400;52.392;9.750;2023-04-02T11:41:06;101753.72;;;7.01;61.85
30636;BME280;17400;52.392;9.750;2023-04-02T11:43:59;101756.03;;;6.96;63.08
30636;BME280;17400;52.392;9.750;2023-04-02T11:46:44;101759.72;;;6.95;59.76
30636;BME280;17400;52.392;9.750;2023-04-02T11:49:37;101771.25;;;7.15;59.83
30636;BME280;17400;52.392;9.750;2023-04-02T11:52:22;101776.19;;;7.47;59.36
30636;BME280;17400;52.392;9.750;2023-04-02T11:55:05;101766.31;;;7.66;58.13
30636;BME280;17400;52.392;9.750;2023-04-02T11:58:00;101768.25;;;7.92;56.22
30636;BME280;17400;52.392;9.750;2023-04-02T12:00:50;101773.41;;;8.03;56.62
30636;BME280;17400;52.392;9.750;2023-04-02T12:03:35;101765.28;;;8.39;57.39
30636;BME280;17400;52.392;9.750;2023-04-02T12:06:11;101761.13;;;8.27;54.71
30636;BME280;17400;52.392;9.750;2023-04-02T12:08:48;101774.19;;;8.49;55.40
30636;BME280;17400;52.392;9.750;2023-04-02T12:11:31;101776.06;;;8.57;55.30
30636;BME280;17400;52.392;9.750;2023-04-02T12:14:32;101779.09;;;8.36;54.86
30636;BME280;17400;52.392;9.750;2023-04-02T12:17:16;101767.28;;;8.37;55.84
30636;BME280;17400;52.392;9.750;2023-04-02T12:19:46;101768.63;;;8.77;55.17
30636;BME280;17400;52.392;9.750;2023-04-02T12:22:19;101772.78;;;8.98;55.01
30636;BME280;17400;52.392;9.750;2023-04-02T12:24:48;101784.94;;;9.02;54.35
30636;BME280;17400;52.392;9.750;2023-04-02T12:27:18;101782.22;;;9.28;54.46
30636;BME280;17400;52.392;9.750;2023-04-02T12:29:49;101788.97;;;9.32;52.07
30636;BME280;17400;52.392;9.750;2023-04-02T12:32:20;101795.63;;;9.38;52.92
30636;BME280;17400;52.392;9.750;2023-04-02T12:34:51;101779.25;;;9.05;52.02
30636;BME280;17400;52.392;9.750;2023-04-02T12:37:24;101783.56;;;8.98;52.84
30636;BME280;17400;52.392;9.750;2023-04-02T12:39:55;101782.91;;;8.96;53.36
30636;BME280;17400;52.392;9.750;2023-04-02T12:42:25;101777.69;;;8.94;53.53
30636;BME280;17400;52.392;9.750;2023-04-02T12:44:55;101785.91;;;8.93;54.07
30636;BME280;17400;52.392;9.750;2023-04-02T12:47:23;101778.59;;;9.11;53.47
30636;BME280;17400;52.392;9.750;2023-04-02T12:49:52;101785.59;;;8.96;52.93
30636;BME280;17400;52.392;9.750;2023-04-02T12:52:23;101783.34;;;8.83;53.65
30636;BME280;17400;52.392;9.750;2023-04-02T12:54:55;101783.13;;;8.76;54.57
30636;BME280;17400;52.392;9.750;2023-04-02T12:57:33;101788.19;;;8.79;55.72
30636;BME280;17400;52.392;9.750;2023-04-02T13:00:34;101788.09;;;8.63;54.17
30636;BME280;17400;52.392;9.750;2023-04-02T13:03:22;101791.38;;;8.48;54.86
30636;BME280;17400;52.392;9.750;2023-04-02T13:05:55;101787.25;;;8.44;54.11
30636;BME280;17400;52.392;9.750;2023-04-02T13:08:25;101788.25;;;8.61;54.15
30636;BME280;17400;52.392;9.750;2023-04-02T13:10:56;101795.50;;;8.61;54.08
30636;BME280;17400;52.392;9.750;2023-04-02T13:13:28;101783.44;;;8.73;54.60
30636;BME280;17400;52.392;9.750;2023-04-02T13:16:18;101793.59;;;9.06;53.64
30636;BME280;17400;52.392;9.750;2023-04-02T13:18:49;101795.63;;;9.46;53.15
30636;BME280;17400;52.392;9.750;2023-04-02T13:21:24;101791.63;;;9.67;51.87
30636;BME280;17400;52.392;9.750;2023-04-02T13:23:54;101790.88;;;9.99;51.53
30636;BME280;17400;52.392;9.750;2023-04-02T13:26:24;101788.38;;;10.23;51.06
30636;BME280;17400;52.392;9.750;2023-04-02T13:28:57;101784.47;;;10.25;48.33
30636;BME280;17400;52.392;9.750;2023-04-02T13:31:27;101790.72;;;10.34;48.04
30636;BME280;17400;52.392;9.750;2023-04-02T13:33:55;101785.97;;;10.28;48.20
30636;BME280;17400;52.392;9.750;2023-04-02T13:36:22;101776.53;;;10.57;47.80